sensor_id;sensor_type;location;lat;lon;timestamp;P1;durP1;ratioP1;P2;durP2;ratioP2
9518;SDS011;4797;50.220;8.782;2022-08-25T00:01:46;90.37;;;57.60;;
9518;SDS011;4797;50.220;8.782;2022-08-25T00:04:15;87.97;;;55.70;;
9518;SDS011;4797;50.220;8.782;2022-08-25T00:06:44;93.67;;;57.87;;
9518;SDS011;4797;50.220;8.782;2022-08-25T00:09:13;87.73;;;54.27;;
9518;SDS011;4797;50.220;8.782;2022-08-25T00:11:42;88.23;;;54.03;;
9518;SDS011;4797;50.220;8.782;2022-08-25T00:14:13;90.10;;;55.37;;
9518;SDS011;4797;50.220;8.782;2022-08-25T00:16:41;89.73;;;54.17;;
9518;SDS011;4797;50.220;8.782;2022-08-25T00:19:11;88.17;;;54.67;;
9518;SDS011;4797;50.220;8.782;2022-08-25T00:21:40;92.37;;;54.77;;
9518;SDS011;4797;50.220;8.782;2022-08-25T00:24:09;90.63;;;55.97;;
9518;SDS011;4797;50.220;8.782;2022-08-25T00:26:38;91.27;;;56.13;;
9518;SDS011;4797;50.220;8.782;2022-08-25T00:29:07;86.63;;;51.80;;
9518;SDS011;4797;50.220;8.782;2022-08-25T00:31:36;90.23;;;56.67;;
9518;SDS011;4797;50.220;8.782;2022-08-25T00:34:06;93.83;;;56.93;;
9518;SDS011;4797;50.220;8.782;2022-08-25T00:36:35;90.30;;;52.17;;
9518;SDS011;4797;50.220;8.782;2022-08-25T00:39:03;90.13;;;51.57;;
9518;SDS011;4797;50.220;8.782;2022-08-25T00:41:32;84.67;;;51.53;;
9518;SDS011;4797;50.220;8.782;2022-08-25T00:44:02;91.33;;;56.20;;
9518;SDS011;4797;50.220;8.782;2022-08-25T00:46:32;87.43;;;53.80;;
9518;SDS011;4797;50.220;8.782;2022-08-25T00:49:04;88.10;;;53.80;;
9518;SDS011;4797;50.220;8.782;2022-08-25T00:51:38;83.50;;;51.27;;
9518;SDS011;4797;50.220;8.782;2022-08-25T00:54:09;90.70;;;55.33;;
9518;SDS011;4797;50.220;8.782;2022-08-25T00:56:40;95.87;;;58.53;;
9518;SDS011;4797;50.220;8.782;2022-08-25T00:59:08;92.13;;;54.63;;
9518;SDS011;4797;50.220;8.782;2022-08-25T01:01:37;87.00;;;53.33;;
9518;SDS011;4797;50.220;8.782;2022-08-25T01:04:07;90.10;;;56.00;;
9518;SDS011;4797;50.220;8.782;2022-08-25T01:06:36;90.00;;;54.77;;
9518;SDS011;4797;50.220;8.782;2022-08-25T01:09:06;88.27;;;53.57;;
9518;SDS011;4797;50.220;8.782;2022-08-25T01:11:34;89.83;;;55.43;;
9518;SDS011;4797;50.220;8.782;2022-08-25T01:14:03;91.30;;;55.77;;
9518;SDS011;4797;50.220;8.782;2022-08-25T01:16:32;90.00;;;54.03;;
9518;SDS011;4797;50.220;8.782;2022-08-25T01:19:01;89.80;;;55.57;;
9518;SDS011;4797;50.220;8.782;2022-08-25T01:21:35;92.90;;;56.23;;
9518;SDS011;4797;50.220;8.782;2022-08-25T01:24:04;87.37;;;54.60;;
9518;SDS011;4797;50.220;8.782;2022-08-25T01:26:34;88.77;;;53.73;;
9518;SDS011;4797;50.220;8.782;2022-08-25T01:29:03;91.37;;;54.70;;
9518;SDS011;4797;50.220;8.782;2022-08-25T01:31:47;91.93;;;53.47;;
9518;SDS011;4797;50.220;8.782;2022-08-25T01:34:16;88.67;;;53.77;;
9518;SDS011;4797;50.220;8.782;2022-08-25T01:36:46;86.27;;;53.47;;
9518;SDS011;4797;50.220;8.782;2022-08-25T01:39:14;90.00;;;56.90;;
9518;SDS011;4797;50.220;8.782;2022-08-25T01:41:53;88.67;;;54.77;;
9518;SDS011;4797;50.220;8.782;2022-08-25T01:44:21;87.37;;;53.40;;
9518;SDS011;4797;50.220;8.782;2022-08-25T01:46:50;88.00;;;55.03;;
9518;SDS011;4797;50.220;8.782;2022-08-25T01:49:18;89.47;;;54.73;;
9518;SDS011;4797;50.220;8.782;2022-08-25T01:51:50;88.03;;;54.00;;
9518;SDS011;4797;50.220;8.782;2022-08-25T01:54:18;88.30;;;53.90;;
9518;SDS011;4797;50.220;8.782;2022-08-25T01:56:47;86.23;;;54.43;;
9518;SDS011;4797;50.220;8.782;2022-08-25T01:59:15;93.53;;;53.77;;
9518;SDS011;4797;50.220;8.782;2022-08-25T02:01:49;88.70;;;55.47;;
9518;SDS011;4797;50.220;8.782;2022-08-25T02:04:25;93.90;;;54.87;;
9518;SDS011;4797;50.220;8.782;2022-08-25T02:06:56;89.77;;;54.43;;
9518;SDS011;4797;50.220;8.782;2022-08-25T02:09:24;90.03;;;53.67;;
9518;SDS011;4797;50.220;8.782;2022-08-25T02:11:52;83.97;;;52.77;;
9518;SDS011;4797;50.220;8.782;2022-08-25T02:14:21;88.43;;;54.60;;
9518;SDS011;4797;50.220;8.782;2022-08-25T02:16:50;85.40;;;53.57;;
9518;SDS011;4797;50.220;8.782;2022-08-25T02:19:19;86.70;;;50.83;;
9518;SDS011;4797;50.220;8.782;2022-08-25T02:21:48;91.00;;;57.27;;
9518;SDS011;4797;50.220;8.782;2022-08-25T02:24:18;82.07;;;51.40;;
9518;SDS011;4797;50.220;8.782;2022-08-25T02:26:47;87.27;;;52.23;;
9518;SDS011;4797;50.220;8.782;2022-08-25T02:29:15;84.67;;;52.30;;
9518;SDS011;4797;50.220;8.782;2022-08-25T02:31:44;86.17;;;53.03;;
9518;SDS011;4797;50.220;8.782;2022-08-25T02:34:12;82.90;;;52.03;;
9518;SDS011;4797;50.220;8.782;2022-08-25T02:36:41;89.57;;;53.03;;
9518;SDS011;4797;50.220;8.782;2022-08-25T02:39:10;88.50;;;53.30;;
9518;SDS011;4797;50.220;8.782;2022-08-25T02:41:40;86.63;;;53.67;;
9518;SDS011;4797;50.220;8.782;2022-08-25T02:44:08;83.93;;;52.63;;
9518;SDS011;4797;50.220;8.782;2022-08-25T02:46:37;95.43;;;59.00;;
9518;SDS011;4797;50.220;8.782;2022-08-25T02:49:05;84.63;;;53.00;;
9518;SDS011;4797;50.220;8.782;2022-08-25T02:51:34;94.17;;;58.87;;
9518;SDS011;4797;50.220;8.782;2022-08-25T02:54:03;86.10;;;53.73;;
9518;SDS011;4797;50.220;8.782;2022-08-25T02:56:32;86.33;;;53.13;;
9518;SDS011;4797;50.220;8.782;2022-08-25T02:59:02;83.40;;;51.87;;
9518;SDS011;4797;50.220;8.782;2022-08-25T03:01:30;85.80;;;54.50;;
9518;SDS011;4797;50.220;8.782;2022-08-25T03:03:59;90.73;;;53.17;;
9518;SDS011;4797;50.220;8.782;2022-08-25T03:06:28;88.57;;;53.13;;
9518;SDS011;4797;50.220;8.782;2022-08-25T03:08:56;83.27;;;51.73;;
9518;SDS011;4797;50.220;8.782;2022-08-25T03:11:24;86.77;;;51.67;;
9518;SDS011;4797;50.220;8.782;2022-08-25T03:13:53;87.20;;;52.43;;
9518;SDS011;4797;50.220;8.782;2022-08-25T03:16:23;85.23;;;52.17;;
9518;SDS011;4797;50.220;8.782;2022-08-25T03:18:53;84.13;;;52.50;;
9518;SDS011;4797;50.220;8.782;2022-08-25T03:21:22;91.17;;;52.90;;
9518;SDS011;4797;50.220;8.782;2022-08-25T03:23:51;85.63;;;54.47;;
9518;SDS011;4797;50.220;8.782;2022-08-25T03:26:19;86.00;;;54.57;;
9518;SDS011;4797;50.220;8.782;2022-08-25T03:29:05;87.20;;;55.53;;
9518;SDS011;4797;50.220;8.782;2022-08-25T03:31:35;88.70;;;55.17;;
9518;SDS011;4797;50.220;8.782;2022-08-25T03:34:04;93.27;;;55.90;;
9518;SDS011;4797;50.220;8.782;2022-08-25T03:36:32;92.93;;;55.30;;
9518;SDS011;4797;50.220;8.782;2022-08-25T03:39:00;89.43;;;55.90;;
9518;SDS011;4797;50.220;8.782;2022-08-25T03:41:29;86.63;;;54.33;;
9518;SDS011;4797;50.220;8.782;2022-08-25T03:43:58;89.60;;;56.97;;
9518;SDS011;4797;50.220;8.782;2022-08-25T03:46:28;89.97;;;57.87;;
9518;SDS011;4797;50.220;8.782;2022-08-25T03:48:59;91.33;;;55.73;;
9518;SDS011;4797;50.220;8.782;2022-08-25T03:51:28;87.57;;;55.27;;
9518;SDS011;4797;50.220;8.782;2022-08-25T03:53:57;89.47;;;54.83;;
9518;SDS011;4797;50.220;8.782;2022-08-25T03:56:25;88.23;;;56.53;;
9518;SDS011;4797;50.220;8.782;2022-08-25T03:58:54;88.20;;;56.03;;
9518;SDS011;4797;50.220;8.782;2022-08-25T04:01:23;87.20;;;54.73;;
9518;SDS011;4797;50.220;8.782;2022-08-25T04:03:51;90.03;;;56.03;;
9518;SDS011;4797;50.220;8.782;2022-08-25T04:06:21;89.93;;;57.57;;
9518;SDS011;4797;50.220;8.782;2022-08-25T04:08:49;90.60;;;54.93;;
9518;SDS011;4797;50.220;8.782;2022-08-25T04:11:19;87.83;;;55.63;;
9518;SDS011;4797;50.220;8.782;2022-08-25T04:13:48;88.53;;;56.67;;
9518;SDS011;4797;50.220;8.782;2022-08-25T04:16:17;91.53;;;58.10;;
9518;SDS011;4797;50.220;8.782;2022-08-25T04:18:46;90.80;;;56.10;;
9518;SDS011;4797;50.220;8.782;2022-08-25T04:21:15;88.17;;;56.90;;
9518;SDS011;4797;50.220;8.782;2022-08-25T04:23:45;89.33;;;57.40;;
9518;SDS011;4797;50.220;8.782;2022-08-25T04:26:15;95.80;;;57.87;;
9518;SDS011;4797;50.220;8.782;2022-08-25T04:28:44;92.80;;;57.10;;
9518;SDS011;4797;50.220;8.782;2022-08-25T04:31:13;89.33;;;56.20;;
9518;SDS011;4797;50.220;8.782;2022-08-25T04:33:42;91.37;;;56.37;;
9518;SDS011;4797;50.220;8.782;2022-08-25T04:36:13;90.30;;;55.87;;
9518;SDS011;4797;50.220;8.782;2022-08-25T04:38:42;90.10;;;56.50;;
9518;SDS011;4797;50.220;8.782;2022-08-25T04:41:12;86.97;;;54.27;;
9518;SDS011;4797;50.220;8.782;2022-08-25T04:43:41;89.03;;;57.07;;
9518;SDS011;4797;50.220;8.782;2022-08-25T04:46:12;86.00;;;54.67;;
9518;SDS011;4797;50.220;8.782;2022-08-25T04:48:45;90.27;;;56.23;;
9518;SDS011;4797;50.220;8.782;2022-08-25T04:51:16;94.30;;;56.23;;
9518;SDS011;4797;50.220;8.782;2022-08-25T04:53:45;87.40;;;56.20;;
9518;SDS011;4797;50.220;8.782;2022-08-25T04:56:15;94.70;;;56.17;;
9518;SDS011;4797;50.220;8.782;2022-08-25T04:58:43;87.93;;;56.00;;
9518;SDS011;4797;50.220;8.782;2022-08-25T05:01:13;85.47;;;54.50;;
9518;SDS011;4797;50.220;8.782;2022-08-25T05:03:42;91.47;;;54.77;;
9518;SDS011;4797;50.220;8.782;2022-08-25T05:06:11;86.80;;;55.37;;
9518;SDS011;4797;50.220;8.782;2022-08-25T05:08:41;87.40;;;55.97;;
9518;SDS011;4797;50.220;8.782;2022-08-25T05:11:12;87.80;;;55.03;;
9518;SDS011;4797;50.220;8.782;2022-08-25T05:13:44;87.57;;;55.53;;
9518;SDS011;4797;50.220;8.782;2022-08-25T05:16:17;87.67;;;56.07;;
9518;SDS011;4797;50.220;8.782;2022-08-25T05:18:45;86.47;;;55.53;;
9518;SDS011;4797;50.220;8.782;2022-08-25T05:21:14;87.97;;;54.50;;
9518;SDS011;4797;50.220;8.782;2022-08-25T05:23:43;89.63;;;54.83;;
9518;SDS011;4797;50.220;8.782;2022-08-25T05:26:13;93.47;;;57.53;;
9518;SDS011;4797;50.220;8.782;2022-08-25T05:28:47;90.20;;;56.43;;
9518;SDS011;4797;50.220;8.782;2022-08-25T05:31:16;86.07;;;54.43;;
9518;SDS011;4797;50.220;8.782;2022-08-25T05:33:45;89.73;;;56.17;;
9518;SDS011;4797;50.220;8.782;2022-08-25T05:36:13;87.80;;;55.10;;
9518;SDS011;4797;50.220;8.782;2022-08-25T05:38:42;86.67;;;55.67;;
9518;SDS011;4797;50.220;8.782;2022-08-25T05:41:11;80.63;;;52.00;;
9518;SDS011;4797;50.220;8.782;2022-08-25T05:43:59;87.87;;;54.33;;
9518;SDS011;4797;50.220;8.782;2022-08-25T05:46:29;83.90;;;52.53;;
9518;SDS011;4797;50.220;8.782;2022-08-25T05:48:58;85.57;;;53.73;;
9518;SDS011;4797;50.220;8.782;2022-08-25T05:51:27;87.43;;;55.63;;
9518;SDS011;4797;50.220;8.782;2022-08-25T05:53:55;86.33;;;55.47;;
9518;SDS011;4797;50.220;8.782;2022-08-25T05:56:23;86.53;;;54.93;;
9518;SDS011;4797;50.220;8.782;2022-08-25T05:58:51;89.00;;;56.83;;
9518;SDS011;4797;50.220;8.782;2022-08-25T06:01:21;90.03;;;57.23;;
9518;SDS011;4797;50.220;8.782;2022-08-25T06:04:11;90.93;;;55.23;;
9518;SDS011;4797;50.220;8.782;2022-08-25T06:06:40;86.80;;;56.63;;
9518;SDS011;4797;50.220;8.782;2022-08-25T06:09:09;85.67;;;55.93;;
9518;SDS011;4797;50.220;8.782;2022-08-25T06:11:38;87.03;;;55.80;;
9518;SDS011;4797;50.220;8.782;2022-08-25T06:14:08;87.87;;;56.67;;
9518;SDS011;4797;50.220;8.782;2022-08-25T06:16:36;88.73;;;57.97;;
9518;SDS011;4797;50.220;8.782;2022-08-25T06:19:06;89.67;;;58.33;;
9518;SDS011;4797;50.220;8.782;2022-08-25T06:21:36;89.63;;;56.70;;
9518;SDS011;4797;50.220;8.782;2022-08-25T06:24:05;91.00;;;57.17;;
9518;SDS011;4797;50.220;8.782;2022-08-25T06:26:40;88.03;;;56.80;;
9518;SDS011;4797;50.220;8.782;2022-08-25T06:29:09;90.10;;;58.60;;
9518;SDS011;4797;50.220;8.782;2022-08-25T06:31:39;90.33;;;57.70;;
9518;SDS011;4797;50.220;8.782;2022-08-25T06:34:07;88.37;;;57.37;;
9518;SDS011;4797;50.220;8.782;2022-08-25T06:36:37;91.20;;;59.97;;
9518;SDS011;4797;50.220;8.782;2022-08-25T06:39:06;95.77;;;59.17;;
9518;SDS011;4797;50.220;8.782;2022-08-25T06:41:36;89.00;;;57.63;;
9518;SDS011;4797;50.220;8.782;2022-08-25T06:44:04;91.20;;;58.70;;
9518;SDS011;4797;50.220;8.782;2022-08-25T06:46:32;93.73;;;59.83;;
9518;SDS011;4797;50.220;8.782;2022-08-25T06:49:02;92.27;;;58.37;;
9518;SDS011;4797;50.220;8.782;2022-08-25T06:51:31;90.67;;;58.60;;
9518;SDS011;4797;50.220;8.782;2022-08-25T06:54:02;88.13;;;55.20;;
9518;SDS011;4797;50.220;8.782;2022-08-25T06:56:31;94.63;;;61.63;;
9518;SDS011;4797;50.220;8.782;2022-08-25T06:58:59;87.90;;;55.30;;
9518;SDS011;4797;50.220;8.782;2022-08-25T07:01:28;92.03;;;59.13;;
9518;SDS011;4797;50.220;8.782;2022-08-25T07:03:58;87.23;;;56.50;;
9518;SDS011;4797;50.220;8.782;2022-08-25T07:06:27;92.93;;;61.07;;
9518;SDS011;4797;50.220;8.782;2022-08-25T07:08:56;87.60;;;56.63;;
9518;SDS011;4797;50.220;8.782;2022-08-25T07:11:26;94.97;;;59.90;;
9518;SDS011;4797;50.220;8.782;2022-08-25T07:13:59;97.10;;;59.93;;
9518;SDS011;4797;50.220;8.782;2022-08-25T07:16:28;98.20;;;62.97;;
9518;SDS011;4797;50.220;8.782;2022-08-25T07:18:57;95.93;;;62.07;;
9518;SDS011;4797;50.220;8.782;2022-08-25T07:21:27;90.40;;;56.93;;
9518;SDS011;4797;50.220;8.782;2022-08-25T07:23:59;88.73;;;57.00;;
9518;SDS011;4797;50.220;8.782;2022-08-25T07:26:30;96.93;;;61.47;;
9518;SDS011;4797;50.220;8.782;2022-08-25T07:29:03;98.03;;;61.67;;
9518;SDS011;4797;50.220;8.782;2022-08-25T07:31:32;88.40;;;57.07;;
9518;SDS011;4797;50.220;8.782;2022-08-25T07:34:02;90.73;;;57.93;;
9518;SDS011;4797;50.220;8.782;2022-08-25T07:36:48;89.53;;;57.50;;
9518;SDS011;4797;50.220;8.782;2022-08-25T07:39:16;92.23;;;59.47;;
9518;SDS011;4797;50.220;8.782;2022-08-25T07:41:48;101.83;;;61.97;;
9518;SDS011;4797;50.220;8.782;2022-08-25T07:44:18;98.80;;;62.43;;
9518;SDS011;4797;50.220;8.782;2022-08-25T07:46:47;96.80;;;61.17;;
9518;SDS011;4797;50.220;8.782;2022-08-25T07:49:16;98.97;;;62.03;;
9518;SDS011;4797;50.220;8.782;2022-08-25T07:51:49;99.70;;;61.77;;
9518;SDS011;4797;50.220;8.782;2022-08-25T07:54:30;95.50;;;60.87;;
9518;SDS011;4797;50.220;8.782;2022-08-25T07:57:01;95.27;;;61.70;;
9518;SDS011;4797;50.220;8.782;2022-08-25T07:59:30;95.77;;;62.03;;
9518;SDS011;4797;50.220;8.782;2022-08-25T08:02:05;97.80;;;63.53;;
9518;SDS011;4797;50.220;8.782;2022-08-25T08:04:34;98.43;;;61.33;;
9518;SDS011;4797;50.220;8.782;2022-08-25T08:07:03;95.83;;;61.60;;
9518;SDS011;4797;50.220;8.782;2022-08-25T08:09:37;99.20;;;60.17;;
9518;SDS011;4797;50.220;8.782;2022-08-25T08:12:07;95.07;;;62.00;;
9518;SDS011;4797;50.220;8.782;2022-08-25T08:14:35;99.37;;;63.17;;
9518;SDS011;4797;50.220;8.782;2022-08-25T08:17:11;97.20;;;60.50;;
9518;SDS011;4797;50.220;8.782;2022-08-25T08:19:39;97.40;;;61.40;;
9518;SDS011;4797;50.220;8.782;2022-08-25T08:22:10;92.20;;;59.90;;
9518;SDS011;4797;50.220;8.782;2022-08-25T08:24:41;96.33;;;60.53;;
9518;SDS011;4797;50.220;8.782;2022-08-25T08:27:22;93.93;;;61.30;;
9518;SDS011;4797;50.220;8.782;2022-08-25T08:29:51;96.60;;;61.10;;
9518;SDS011;4797;50.220;8.782;2022-08-25T08:32:19;92.63;;;58.50;;
9518;SDS011;4797;50.220;8.782;2022-08-25T08:35:08;96.47;;;62.57;;
9518;SDS011;4797;50.220;8.782;2022-08-25T08:37:36;93.80;;;60.47;;
9518;SDS011;4797;50.220;8.782;2022-08-25T08:40:08;94.80;;;61.43;;
9518;SDS011;4797;50.220;8.782;2022-08-25T08:42:42;98.07;;;63.50;;
9518;SDS011;4797;50.220;8.782;2022-08-25T08:45:27;101.27;;;63.43;;
9518;SDS011;4797;50.220;8.782;2022-08-25T08:48:09;96.40;;;62.77;;
9518;SDS011;4797;50.220;8.782;2022-08-25T08:50:42;93.50;;;60.60;;
9518;SDS011;4797;50.220;8.782;2022-08-25T08:53:18;96.47;;;64.27;;
9518;SDS011;4797;50.220;8.782;2022-08-25T08:55:50;95.03;;;60.17;;
9518;SDS011;4797;50.220;8.782;2022-08-25T08:58:21;97.33;;;62.57;;
9518;SDS011;4797;50.220;8.782;2022-08-25T09:00:52;97.53;;;61.17;;
9518;SDS011;4797;50.220;8.782;2022-08-25T09:03:26;97.07;;;62.17;;
9518;SDS011;4797;50.220;8.782;2022-08-25T09:05:55;95.93;;;61.50;;
9518;SDS011;4797;50.220;8.782;2022-08-25T09:08:28;96.23;;;61.30;;
9518;SDS011;4797;50.220;8.782;2022-08-25T09:11:00;97.67;;;63.63;;
9518;SDS011;4797;50.220;8.782;2022-08-25T09:13:39;97.50;;;64.13;;
9518;SDS011;4797;50.220;8.782;2022-08-25T09:16:11;99.90;;;63.27;;
9518;SDS011;4797;50.220;8.782;2022-08-25T09:19:03;98.73;;;61.80;;
9518;SDS011;4797;50.220;8.782;2022-08-25T09:21:34;98.37;;;64.97;;
9518;SDS011;4797;50.220;8.782;2022-08-25T09:24:08;99.87;;;63.80;;
9518;SDS011;4797;50.220;8.782;2022-08-25T09:26:42;100.40;;;62.60;;
9518;SDS011;4797;50.220;8.782;2022-08-25T09:29:14;96.03;;;61.47;;
9518;SDS011;4797;50.220;8.782;2022-08-25T09:31:46;96.27;;;62.37;;
9518;SDS011;4797;50.220;8.782;2022-08-25T09:34:16;94.23;;;59.33;;
9518;SDS011;4797;50.220;8.782;2022-08-25T09:36:45;98.03;;;63.50;;
9518;SDS011;4797;50.220;8.782;2022-08-25T09:39:17;94.73;;;61.67;;
9518;SDS011;4797;50.220;8.782;2022-08-25T09:41:47;96.93;;;63.03;;
9518;SDS011;4797;50.220;8.782;2022-08-25T09:44:20;99.33;;;61.90;;
9518;SDS011;4797;50.220;8.782;2022-08-25T09:46:55;99.37;;;62.33;;
9518;SDS011;4797;50.220;8.782;2022-08-25T09:49:37;97.63;;;62.63;;
9518;SDS011;4797;50.220;8.782;2022-08-25T09:52:21;97.87;;;62.80;;
9518;SDS011;4797;50.220;8.782;2022-08-25T09:54:50;95.63;;;60.83;;
9518;SDS011;4797;50.220;8.782;2022-08-25T09:57:30;95.30;;;61.30;;
9518;SDS011;4797;50.220;8.782;2022-08-25T10:02:43;95.60;;;61.13;;
9518;SDS011;4797;50.220;8.782;2022-08-25T10:05:19;107.13;;;61.50;;
9518;SDS011;4797;50.220;8.782;2022-08-25T10:07:49;90.23;;;58.13;;
9518;SDS011;4797;50.220;8.782;2022-08-25T10:10:21;96.70;;;62.23;;
9518;SDS011;4797;50.220;8.782;2022-08-25T10:12:51;99.23;;;65.63;;
9518;SDS011;4797;50.220;8.782;2022-08-25T10:15:24;97.53;;;62.63;;
9518;SDS011;4797;50.220;8.782;2022-08-25T10:17:57;101.70;;;66.67;;
9518;SDS011;4797;50.220;8.782;2022-08-25T10:20:43;96.13;;;62.00;;
9518;SDS011;4797;50.220;8.782;2022-08-25T10:23:14;99.23;;;64.17;;
9518;SDS011;4797;50.220;8.782;2022-08-25T10:25:43;96.57;;;63.37;;
9518;SDS011;4797;50.220;8.782;2022-08-25T10:28:28;95.10;;;61.97;;
9518;SDS011;4797;50.220;8.782;2022-08-25T10:31:01;98.43;;;63.70;;
9518;SDS011;4797;50.220;8.782;2022-08-25T10:33:38;92.77;;;59.20;;
9518;SDS011;4797;50.220;8.782;2022-08-25T10:36:12;99.00;;;62.83;;
9518;SDS011;4797;50.220;8.782;2022-08-25T10:38:46;100.80;;;62.37;;
9518;SDS011;4797;50.220;8.782;2022-08-25T10:41:20;96.43;;;62.30;;
9518;SDS011;4797;50.220;8.782;2022-08-25T10:43:53;101.23;;;62.67;;
9518;SDS011;4797;50.220;8.782;2022-08-25T10:46:26;98.80;;;63.07;;
9518;SDS011;4797;50.220;8.782;2022-08-25T10:49:00;98.63;;;61.10;;
9518;SDS011;4797;50.220;8.782;2022-08-25T10:51:32;98.03;;;63.53;;
9518;SDS011;4797;50.220;8.782;2022-08-25T10:54:05;98.00;;;62.03;;
9518;SDS011;4797;50.220;8.782;2022-08-25T10:56:35;95.80;;;62.07;;
9518;SDS011;4797;50.220;8.782;2022-08-25T10:59:15;101.50;;;62.77;;
9518;SDS011;4797;50.220;8.782;2022-08-25T11:01:51;98.40;;;61.20;;
9518;SDS011;4797;50.220;8.782;2022-08-25T11:04:26;95.37;;;62.17;;
9518;SDS011;4797;50.220;8.782;2022-08-25T11:06:57;100.80;;;66.20;;
9518;SDS011;4797;50.220;8.782;2022-08-25T11:09:28;100.47;;;60.57;;
9518;SDS011;4797;50.220;8.782;2022-08-25T11:12:02;95.87;;;61.60;;
9518;SDS011;4797;50.220;8.782;2022-08-25T11:14:32;96.07;;;61.13;;
9518;SDS011;4797;50.220;8.782;2022-08-25T11:17:04;98.27;;;62.33;;
9518;SDS011;4797;50.220;8.782;2022-08-25T11:19:35;98.27;;;61.93;;
9518;SDS011;4797;50.220;8.782;2022-08-25T11:22:05;97.60;;;62.93;;
9518;SDS011;4797;50.220;8.782;2022-08-25T11:24:46;92.60;;;58.67;;
9518;SDS011;4797;50.220;8.782;2022-08-25T11:27:19;95.73;;;60.77;;
9518;SDS011;4797;50.220;8.782;2022-08-25T11:29:52;97.83;;;62.23;;
9518;SDS011;4797;50.220;8.782;2022-08-25T11:32:23;94.17;;;59.70;;
9518;SDS011;4797;50.220;8.782;2022-08-25T11:34:53;98.40;;;61.73;;
9518;SDS011;4797;50.220;8.782;2022-08-25T11:37:23;97.40;;;61.63;;
9518;SDS011;4797;50.220;8.782;2022-08-25T11:40:00;95.43;;;60.77;;
9518;SDS011;4797;50.220;8.782;2022-08-25T11:42:35;93.97;;;59.63;;
9518;SDS011;4797;50.220;8.782;2022-08-25T11:45:10;93.43;;;59.40;;
9518;SDS011;4797;50.220;8.782;2022-08-25T11:47:48;93.70;;;59.97;;
9518;SDS011;4797;50.220;8.782;2022-08-25T11:50:25;95.30;;;60.20;;
9518;SDS011;4797;50.220;8.782;2022-08-25T11:52:56;94.37;;;60.30;;
9518;SDS011;4797;50.220;8.782;2022-08-25T11:55:27;95.87;;;60.53;;
9518;SDS011;4797;50.220;8.782;2022-08-25T12:00:51;93.60;;;59.00;;
9518;SDS011;4797;50.220;8.782;2022-08-25T12:06:14;95.43;;;59.97;;
9518;SDS011;4797;50.220;8.782;2022-08-25T12:08:46;94.63;;;60.47;;
9518;SDS011;4797;50.220;8.782;2022-08-25T12:14:14;95.60;;;59.57;;
9518;SDS011;4797;50.220;8.782;2022-08-25T12:16:42;93.70;;;60.20;;
9518;SDS011;4797;50.220;8.782;2022-08-25T12:21:57;98.13;;;63.00;;
9518;SDS011;4797;50.220;8.782;2022-08-25T12:24:44;96.83;;;61.70;;
9518;SDS011;4797;50.220;8.782;2022-08-25T12:27:19;98.27;;;62.20;;
9518;SDS011;4797;50.220;8.782;2022-08-25T12:29:52;92.77;;;59.37;;
9518;SDS011;4797;50.220;8.782;2022-08-25T12:35:14;96.33;;;61.07;;
9518;SDS011;4797;50.220;8.782;2022-08-25T12:37:54;102.77;;;61.03;;
9518;SDS011;4797;50.220;8.782;2022-08-25T12:40:25;95.07;;;60.60;;
9518;SDS011;4797;50.220;8.782;2022-08-25T12:43:05;93.60;;;60.00;;
9518;SDS011;4797;50.220;8.782;2022-08-25T12:45:38;91.73;;;58.73;;
9518;SDS011;4797;50.220;8.782;2022-08-25T12:50:54;93.17;;;59.57;;
9518;SDS011;4797;50.220;8.782;2022-08-25T12:53:27;94.90;;;59.33;;
9518;SDS011;4797;50.220;8.782;2022-08-25T12:55:59;94.03;;;58.07;;
9518;SDS011;4797;50.220;8.782;2022-08-25T12:58:33;94.23;;;59.07;;
9518;SDS011;4797;50.220;8.782;2022-08-25T13:01:27;93.20;;;59.10;;
9518;SDS011;4797;50.220;8.782;2022-08-25T13:04:10;93.23;;;58.60;;
9518;SDS011;4797;50.220;8.782;2022-08-25T13:06:44;95.20;;;57.80;;
9518;SDS011;4797;50.220;8.782;2022-08-25T13:12:04;93.70;;;60.63;;
9518;SDS011;4797;50.220;8.782;2022-08-25T13:14:36;93.83;;;58.77;;
9518;SDS011;4797;50.220;8.782;2022-08-25T13:17:05;93.20;;;58.70;;
9518;SDS011;4797;50.220;8.782;2022-08-25T13:19:35;93.63;;;59.00;;
9518;SDS011;4797;50.220;8.782;2022-08-25T13:22:09;92.27;;;59.17;;
9518;SDS011;4797;50.220;8.782;2022-08-25T13:24:42;92.67;;;58.33;;
9518;SDS011;4797;50.220;8.782;2022-08-25T13:27:18;93.03;;;58.97;;
9518;SDS011;4797;50.220;8.782;2022-08-25T13:29:48;92.50;;;58.60;;
9518;SDS011;4797;50.220;8.782;2022-08-25T13:32:24;94.53;;;57.97;;
9518;SDS011;4797;50.220;8.782;2022-08-25T13:35:06;98.83;;;61.63;;
9518;SDS011;4797;50.220;8.782;2022-08-25T13:37:35;96.10;;;59.17;;
9518;SDS011;4797;50.220;8.782;2022-08-25T13:40:09;97.10;;;61.13;;
9518;SDS011;4797;50.220;8.782;2022-08-25T13:42:39;96.27;;;60.13;;
9518;SDS011;4797;50.220;8.782;2022-08-25T13:45:11;98.00;;;61.57;;
9518;SDS011;4797;50.220;8.782;2022-08-25T13:47:41;98.83;;;61.73;;
9518;SDS011;4797;50.220;8.782;2022-08-25T13:50:18;97.03;;;60.67;;
9518;SDS011;4797;50.220;8.782;2022-08-25T13:52:48;97.40;;;60.70;;
9518;SDS011;4797;50.220;8.782;2022-08-25T13:55:20;97.43;;;61.03;;
9518;SDS011;4797;50.220;8.782;2022-08-25T13:57:55;95.23;;;59.87;;
9518;SDS011;4797;50.220;8.782;2022-08-25T14:00:25;95.03;;;59.50;;
9518;SDS011;4797;50.220;8.782;2022-08-25T14:02:57;100.97;;;61.57;;
9518;SDS011;4797;50.220;8.782;2022-08-25T14:05:31;99.20;;;62.90;;
9518;SDS011;4797;50.220;8.782;2022-08-25T14:08:01;100.63;;;62.27;;
9518;SDS011;4797;50.220;8.782;2022-08-25T14:10:50;96.90;;;61.00;;
9518;SDS011;4797;50.220;8.782;2022-08-25T14:13:31;102.57;;;62.30;;
9518;SDS011;4797;50.220;8.782;2022-08-25T14:16:06;101.03;;;61.97;;
9518;SDS011;4797;50.220;8.782;2022-08-25T14:18:36;98.70;;;62.87;;
9518;SDS011;4797;50.220;8.782;2022-08-25T14:21:07;96.93;;;61.90;;
9518;SDS011;4797;50.220;8.782;2022-08-25T14:23:37;97.37;;;60.97;;
9518;SDS011;4797;50.220;8.782;2022-08-25T14:26:05;97.47;;;60.27;;
9518;SDS011;4797;50.220;8.782;2022-08-25T14:28:35;97.17;;;61.53;;
9518;SDS011;4797;50.220;8.782;2022-08-25T14:31:07;99.77;;;60.40;;
9518;SDS011;4797;50.220;8.782;2022-08-25T14:33:37;96.73;;;60.77;;
9518;SDS011;4797;50.220;8.782;2022-08-25T14:36:07;96.13;;;60.40;;
9518;SDS011;4797;50.220;8.782;2022-08-25T14:38:35;97.70;;;61.43;;
9518;SDS011;4797;50.220;8.782;2022-08-25T14:41:09;95.03;;;60.17;;
9518;SDS011;4797;50.220;8.782;2022-08-25T14:43:38;97.67;;;60.53;;
9518;SDS011;4797;50.220;8.782;2022-08-25T14:46:11;96.87;;;60.77;;
9518;SDS011;4797;50.220;8.782;2022-08-25T14:48:41;95.03;;;58.97;;
9518;SDS011;4797;50.220;8.782;2022-08-25T14:51:11;95.57;;;60.60;;
9518;SDS011;4797;50.220;8.782;2022-08-25T14:53:40;97.20;;;61.30;;
9518;SDS011;4797;50.220;8.782;2022-08-25T14:56:08;97.40;;;61.10;;
9518;SDS011;4797;50.220;8.782;2022-08-25T14:58:43;101.20;;;62.13;;
9518;SDS011;4797;50.220;8.782;2022-08-25T15:01:19;100.97;;;62.00;;
9518;SDS011;4797;50.220;8.782;2022-08-25T15:03:56;100.77;;;62.40;;
9518;SDS011;4797;50.220;8.782;2022-08-25T15:06:25;98.23;;;62.03;;
9518;SDS011;4797;50.220;8.782;2022-08-25T15:08:55;101.97;;;61.97;;
9518;SDS011;4797;50.220;8.782;2022-08-25T15:11:37;96.90;;;60.67;;
9518;SDS011;4797;50.220;8.782;2022-08-25T15:14:08;97.60;;;61.37;;
9518;SDS011;4797;50.220;8.782;2022-08-25T15:16:40;101.93;;;61.97;;
9518;SDS011;4797;50.220;8.782;2022-08-25T15:19:12;99.97;;;61.97;;
9518;SDS011;4797;50.220;8.782;2022-08-25T15:21:41;99.47;;;62.70;;
9518;SDS011;4797;50.220;8.782;2022-08-25T15:24:10;103.87;;;62.60;;
9518;SDS011;4797;50.220;8.782;2022-08-25T15:26:43;96.53;;;60.07;;
9518;SDS011;4797;50.220;8.782;2022-08-25T15:29:19;95.50;;;60.00;;
9518;SDS011;4797;50.220;8.782;2022-08-25T15:31:48;97.20;;;61.83;;
9518;SDS011;4797;50.220;8.782;2022-08-25T15:34:16;95.47;;;60.60;;
9518;SDS011;4797;50.220;8.782;2022-08-25T15:36:45;94.73;;;59.90;;